Time;durP1;ratioP1;P1;durP2;ratioP2;P2;SDS_P1;SDS_P2;PMS_P1;PMS_P2;Temp;Humidity;BMP_temperature;BMP_pressure;BME280_temperature;BME280_humidity;BME280_pressure;Samples;Min_cycle;Max_cycle;Signal;HPM_P1;HPM_P2
2023/12/21 00:01:13;;;;;;;5.05;1.48;;;9.40;99.90;;;;;;4978800;28;20050;-76
2023/12/21 00:03:39;;;;;;;5.25;1.38;;;9.40;99.90;;;;;;4957090;28;20343;-76
2023/12/21 00:06:05;;;;;;;2.85;2.00;;;9.30;99.90;;;;;;4962308;28;20061;-76
2023/12/21 00:08:31;;;;;;;16.98;2.20;;;9.40;99.90;;;;;;4970305;28;20046;-77
2023/12/21 00:10:58;;;;;;;10.35;1.58;;;9.40;99.90;;;;;;4971163;28;20129;-76
2023/12/21 00:13:26;;;;;;;2.50;1.73;;;9.40;99.90;;;;;;4967439;28;20050;-76
2023/12/21 00:15:52;;;;;;;8.52;2.20;;;9.40;99.90;;;;;;4962544;28;20050;-77
2023/12/21 00:18:17;;;;;;;8.60;1.77;;;9.30;99.90;;;;;;4968724;28;20047;-76
2023/12/21 00:20:43;;;;;;;9.52;1.98;;;9.40;99.90;;;;;;4971707;28;20038;-76
2023/12/21 00:23:08;;;;;;;3.45;0.95;;;9.30;99.90;;;;;;4980504;28;21053;-77
2023/12/21 00:25:34;;;;;;;10.80;1.40;;;9.40;99.90;;;;;;4980453;28;20384;-77
2023/12/21 00:28:00;;;;;;;4.72;1.65;;;9.30;99.90;;;;;;4977411;28;20047;-76
2023/12/21 00:30:25;;;;;;;5.20;1.63;;;9.40;99.90;;;;;;4982411;28;20039;-76
2023/12/21 00:32:52;;;;;;;4.90;1.35;;;9.40;99.90;;;;;;4981708;28;20085;-77
2023/12/21 00:35:18;;;;;;;8.98;2.20;;;9.40;99.90;;;;;;4981636;28;20065;-77
2023/12/21 00:37:44;;;;;;;3.88;1.58;;;9.40;99.90;;;;;;4973043;28;20038;-77
2023/12/21 00:40:11;;;;;;;4.97;3.53;;;9.30;99.90;;;;;;4982022;28;20054;-76
2023/12/21 00:42:41;;;;;;;12.07;3.15;;;9.30;99.90;;;;;;4985068;28;20027;-76
2023/12/21 00:45:07;;;;;;;5.70;2.13;;;9.40;99.90;;;;;;4976096;28;20050;-77
2023/12/21 00:47:33;;;;;;;4.85;1.77;;;9.30;99.90;;;;;;4984879;28;20046;-76
2023/12/21 00:49:58;;;;;;;6.57;1.83;;;9.40;99.90;;;;;;4971697;28;20039;-76
2023/12/21 00:52:24;;;;;;;4.57;1.65;;;9.40;99.90;;;;;;4945395;29;20047;-77
2023/12/21 00:54:50;;;;;;;3.65;1.60;;;9.40;99.90;;;;;;4975312;28;20042;-78
2023/12/21 00:57:15;;;;;;;4.85;2.40;;;9.40;99.90;;;;;;4983884;28;20046;-76
2023/12/21 00:59:41;;;;;;;3.55;1.38;;;9.40;99.90;;;;;;4976587;28;20113;-76
2023/12/21 01:02:06;;;;;;;7.93;1.67;;;9.40;99.90;;;;;;4983944;28;20584;-77
2023/12/21 01:04:32;;;;;;;8.55;1.42;;;9.30;99.90;;;;;;4985040;28;20040;-77
2023/12/21 01:06:58;;;;;;;4.95;1.80;;;9.40;99.90;;;;;;4983689;28;20054;-76
2023/12/21 01:09:23;;;;;;;3.47;1.60;;;9.30;99.90;;;;;;4971056;28;20043;-77
2023/12/21 01:11:49;;;;;;;6.88;2.03;;;9.30;99.90;;;;;;4966065;28;20108;-76
2023/12/21 01:14:14;;;;;;;5.90;2.17;;;9.30;99.90;;;;;;4982934;28;20105;-77
2023/12/21 01:16:40;;;;;;;4.97;1.83;;;9.30;99.90;;;;;;4984142;28;20042;-76
2023/12/21 01:19:05;;;;;;;5.35;1.73;;;9.30;99.90;;;;;;4978059;28;20049;-76
2023/12/21 01:21:31;;;;;;;3.47;1.55;;;9.30;99.90;;;;;;4969641;28;20039;-77
2023/12/21 01:23:57;;;;;;;2.60;1.25;;;9.30;99.90;;;;;;4982891;28;20086;-76
2023/12/21 01:26:22;;;;;;;2.97;1.60;;;9.30;99.90;;;;;;4966853;28;20046;-77
2023/12/21 01:28:48;;;;;;;7.78;1.65;;;9.30;99.90;;;;;;4951021;28;20620;-76
2023/12/21 01:31:13;;;;;;;11.13;2.38;;;9.30;99.90;;;;;;4982834;28;20125;-77
2023/12/21 01:33:39;;;;;;;4.85;1.75;;;9.30;99.90;;;;;;4984677;28;21167;-76
2023/12/21 01:36:07;;;;;;;5.65;2.00;;;9.30;99.90;;;;;;4983168;28;20050;-77
2023/12/21 01:38:34;;;;;;;4.50;1.50;;;9.30;99.90;;;;;;4975939;28;20045;-76
2023/12/21 01:40:59;;;;;;;4.15;1.88;;;9.30;99.90;;;;;;4981105;28;20541;-77
2023/12/21 01:43:25;;;;;;;5.30;1.90;;;9.30;99.90;;;;;;4983507;28;20042;-77
2023/12/21 01:45:52;;;;;;;6.63;2.33;;;9.20;99.90;;;;;;4982986;28;20461;-77
2023/12/21 01:48:18;;;;;;;4.10;1.85;;;9.30;99.90;;;;;;4955666;28;20051;-77
2023/12/21 01:50:44;;;;;;;6.80;1.70;;;9.30;99.90;;;;;;4964342;28;20035;-77
2023/12/21 01:53:11;;;;;;;5.97;1.73;;;9.30;99.90;;;;;;4965414;28;20046;-77
2023/12/21 01:55:38;;;;;;;5.93;1.92;;;9.30;99.90;;;;;;4982632;28;20101;-76
2023/12/21 01:58:05;;;;;;;3.53;1.63;;;9.30;99.90;;;;;;4983826;28;20126;-77
2023/12/21 02:00:31;;;;;;;14.57;2.55;;;9.30;99.90;;;;;;4973531;28;20539;-77
2023/12/21 02:02:57;;;;;;;13.70;3.03;;;9.30;99.90;;;;;;4979306;28;20444;-76
2023/12/21 02:05:22;;;;;;;3.67;1.88;;;9.20;99.90;;;;;;4983992;28;20054;-76
2023/12/21 02:07:48;;;;;;;5.53;1.85;;;9.30;99.90;;;;;;4982404;28;20110;-78
2023/12/21 02:10:14;;;;;;;6.28;1.75;;;9.20;99.90;;;;;;4961304;28;20057;-77
2023/12/21 02:12:39;;;;;;;8.68;2.55;;;9.20;99.90;;;;;;4965035;28;20047;-76
2023/12/21 02:15:07;;;;;;;15.93;1.63;;;9.20;99.90;;;;;;4977234;28;20085;-76
2023/12/21 02:17:33;;;;;;;6.28;2.90;;;9.30;99.90;;;;;;4982476;28;20074;-77
2023/12/21 02:19:59;;;;;;;4.95;1.88;;;9.20;99.90;;;;;;4977823;28;20043;-76
2023/12/21 02:22:27;;;;;;;1.95;1.08;;;9.30;99.90;;;;;;4964790;28;20070;-76
2023/12/21 02:24:53;;;;;;;3.47;1.50;;;9.30;99.90;;;;;;4964419;28;20122;-77
2023/12/21 02:27:18;;;;;;;11.32;2.20;;;9.30;99.90;;;;;;4961277;28;20125;-77
2023/12/21 02:29:44;;;;;;;17.58;2.70;;;9.30;99.90;;;;;;4964598;28;20046;-76
2023/12/21 02:32:09;;;;;;;5.93;1.05;;;9.20;99.90;;;;;;4963057;28;20057;-76
2023/12/21 02:34:35;;;;;;;7.72;1.75;;;9.20;99.90;;;;;;4963023;28;20054;-77
2023/12/21 02:37:00;;;;;;;13.13;1.90;;;9.30;99.90;;;;;;4962661;28;20042;-77
2023/12/21 02:39:26;;;;;;;7.68;2.95;;;9.30;99.90;;;;;;4963319;28;20043;-76
2023/12/21 02:41:54;;;;;;;6.60;1.92;;;9.30;99.90;;;;;;4962159;28;20042;-77
2023/12/21 02:44:20;;;;;;;6.97;2.22;;;9.30;99.90;;;;;;4964104;28;20081;-78
2023/12/21 02:46:45;;;;;;;6.15;1.50;;;9.30;99.90;;;;;;4963441;28;20137;-77
2023/12/21 02:49:11;;;;;;;8.52;2.05;;;9.30;99.90;;;;;;4962786;28;20054;-76
2023/12/21 02:51:36;;;;;;;9.45;2.03;;;9.30;99.90;;;;;;4977174;28;20050;-76
2023/12/21 02:54:02;;;;;;;3.67;1.38;;;9.30;99.90;;;;;;4983004;28;20544;-77
2023/12/21 02:56:27;;;;;;;6.15;1.17;;;9.30;99.90;;;;;;4980575;28;20425;-77
2023/12/21 02:58:53;;;;;;;6.45;2.20;;;9.20;99.90;;;;;;4973219;28;20497;-77
2023/12/21 03:01:19;;;;;;;6.13;1.80;;;9.20;99.90;;;;;;4982932;28;20153;-77
2023/12/21 03:03:44;;;;;;;9.20;1.98;;;9.20;99.90;;;;;;4983081;28;20057;-77
2023/12/21 03:06:10;;;;;;;4.78;1.52;;;9.20;99.90;;;;;;4982012;28;20061;-76
2023/12/21 03:08:37;;;;;;;5.78;1.38;;;9.20;99.90;;;;;;4963723;28;20130;-76
2023/12/21 03:11:02;;;;;;;5.95;1.38;;;9.20;99.90;;;;;;4962358;28;20133;-76
2023/12/21 03:13:28;;;;;;;9.30;1.63;;;9.20;99.90;;;;;;4975839;28;20061;-77
2023/12/21 03:15:53;;;;;;;3.47;1.40;;;9.20;99.90;;;;;;4981186;28;20046;-77
2023/12/21 03:18:19;;;;;;;4.68;1.80;;;9.20;99.90;;;;;;4973987;28;20050;-76
2023/12/21 03:20:45;;;;;;;3.30;1.77;;;9.20;99.90;;;;;;4982308;28;20043;-76
2023/12/21 03:23:10;;;;;;;5.90;1.38;;;9.20;99.90;;;;;;4970245;28;20053;-77
2023/12/21 03:25:36;;;;;;;3.03;1.27;;;9.20;99.90;;;;;;4979834;28;20484;-76
2023/12/21 03:28:03;;;;;;;3.33;1.52;;;9.30;99.90;;;;;;4970557;28;20078;-76
2023/12/21 03:30:29;;;;;;;5.45;1.58;;;9.30;99.90;;;;;;4978052;28;20030;-77
2023/12/21 03:32:55;;;;;;;7.57;2.78;;;9.30;99.90;;;;;;4981808;28;20105;-76
2023/12/21 03:35:20;;;;;;;4.82;1.52;;;9.30;99.90;;;;;;4982438;28;20046;-77
2023/12/21 03:37:46;;;;;;;3.15;1.40;;;9.30;99.90;;;;;;4973627;28;20562;-76
2023/12/21 03:40:12;;;;;;;2.45;1.13;;;9.30;99.90;;;;;;4960123;28;20060;-76
2023/12/21 03:42:38;;;;;;;6.28;1.38;;;9.30;99.90;;;;;;4964798;28;20496;-77
2023/12/21 03:45:04;;;;;;;7.35;1.13;;;9.30;99.90;;;;;;4981757;28;20081;-77
2023/12/21 03:47:30;;;;;;;11.90;1.85;;;9.30;99.90;;;;;;4975539;28;20494;-76
2023/12/21 03:49:55;;;;;;;7.32;1.27;;;9.30;99.90;;;;;;4962016;28;20085;-77
2023/12/21 03:52:21;;;;;;;6.93;1.50;;;9.30;99.90;;;;;;4970111;28;20125;-77
2023/12/21 03:54:47;;;;;;;8.48;0.95;;;9.30;99.90;;;;;;4982693;28;20540;-77
2023/12/21 03:57:13;;;;;;;6.20;0.95;;;9.30;99.90;;;;;;4976394;28;20072;-76
2023/12/21 03:59:40;;;;;;;4.30;1.40;;;9.30;99.90;;;;;;4964082;28;20129;-77
2023/12/21 04:02:06;;;;;;;8.13;2.78;;;9.30;99.90;;;;;;4979908;28;20088;-76
2023/12/21 04:04:32;;;;;;;7.05;2.20;;;9.30;99.90;;;;;;4976394;28;20489;-77
2023/12/21 04:06:58;;;;;;;6.45;1.33;;;9.30;99.90;;;;;;4945114;28;20453;-77
2023/12/21 04:09:25;;;;;;;4.53;1.52;;;9.30;99.90;;;;;;4963450;28;20039;-77
2023/12/21 04:11:50;;;;;;;2.28;1.33;;;9.30;99.90;;;;;;4962867;28;20060;-77
2023/12/21 04:14:16;;;;;;;2.95;1.30;;;9.30;99.90;;;;;;4969935;28;20042;-77
2023/12/21 04:16:41;;;;;;;6.10;1.17;;;9.30;99.90;;;;;;4982315;28;20595;-76
2023/12/21 04:19:07;;;;;;;7.35;1.75;;;9.30;99.90;;;;;;4976410;28;20050;-77
2023/12/21 04:21:33;;;;;;;3.90;1.00;;;9.30;99.90;;;;;;4979520;28;20133;-78
2023/12/21 04:23:59;;;;;;;4.10;2.05;;;9.30;99.90;;;;;;4980992;28;20572;-77
2023/12/21 04:26:24;;;;;;;3.67;1.10;;;9.30;99.90;;;;;;4979553;28;20077;-76
2023/12/21 04:28:50;;;;;;;3.13;1.67;;;9.30;99.90;;;;;;4979017;28;20133;-78
2023/12/21 04:31:23;;;;;;;3.03;1.70;;;9.30;99.90;;;;;;4955839;28;20058;-77
2023/12/21 04:33:49;;;;;;;;;;;9.30;99.90;;;;;;4982104;28;20077;-76
2023/12/21 04:36:16;;;;;;;3.42;1.63;;;9.30;99.90;;;;;;4981170;28;20347;-77
2023/12/21 04:38:41;;;;;;;4.55;1.70;;;9.30;99.90;;;;;;4980401;28;20058;-77
2023/12/21 04:41:07;;;;;;;4.00;1.38;;;9.30;99.90;;;;;;4973354;28;20493;-76
2023/12/21 04:43:33;;;;;;;3.70;1.33;;;9.30;99.90;;;;;;4981937;28;20110;-77
2023/12/21 04:45:58;;;;;;;9.18;1.70;;;9.30;99.90;;;;;;4981057;28;20046;-77
2023/12/21 04:48:24;;;;;;;6.15;2.05;;;9.30;99.90;;;;;;4981216;28;20511;-77
2023/12/21 04:50:49;;;;;;;4.80;1.60;;;9.30;99.90;;;;;;4964167;28;20051;-78
2023/12/21 04:53:15;;;;;;;3.78;1.80;;;9.30;99.90;;;;;;4964648;28;20496;-76
2023/12/21 04:55:40;;;;;;;7.78;2.55;;;9.40;99.90;;;;;;4981175;28;20529;-76
2023/12/21 04:58:06;;;;;;;3.05;1.63;;;9.40;99.90;;;;;;4980894;28;20576;-77
2023/12/21 05:00:32;;;;;;;5.40;1.13;;;9.40;99.90;;;;;;4966318;28;20078;-76
2023/12/21 05:02:57;;;;;;;5.20;1.83;;;9.40;99.90;;;;;;4962572;28;20038;-76
2023/12/21 05:05:23;;;;;;;8.23;1.33;;;9.40;99.90;;;;;;4963527;28;20050;-77
2023/12/21 05:07:48;;;;;;;12.60;2.40;;;9.40;99.90;;;;;;4963796;28;20082;-76
2023/12/21 05:10:14;;;;;;;5.57;1.38;;;9.40;99.90;;;;;;4958838;28;20410;-76
2023/12/21 05:12:40;;;;;;;1.85;1.00;;;9.40;99.90;;;;;;4957050;28;20088;-76
2023/12/21 05:15:06;;;;;;;5.10;1.98;;;9.40;99.90;;;;;;4960544;28;20082;-76
2023/12/21 05:17:31;;;;;;;5.80;1.23;;;9.40;99.90;;;;;;4961733;28;20061;-76
2023/12/21 05:19:57;;;;;;;3.60;1.10;;;9.40;99.90;;;;;;4961156;28;20482;-77
2023/12/21 05:22:22;;;;;;;5.03;1.48;;;9.40;99.90;;;;;;4962213;28;20693;-76
2023/12/21 05:24:48;;;;;;;3.78;1.73;;;9.50;99.90;;;;;;4977065;28;20050;-77
2023/12/21 05:27:14;;;;;;;7.57;1.63;;;9.50;99.90;;;;;;4984233;28;20038;-77
2023/12/21 05:29:41;;;;;;;2.72;1.20;;;9.50;99.90;;;;;;4977685;28;20059;-77
2023/12/21 05:32:07;;;;;;;4.65;1.83;;;9.50;99.90;;;;;;4983061;28;20051;-76
2023/12/21 05:34:32;;;;;;;7.68;2.25;;;9.50;99.90;;;;;;4983383;28;20035;-77
2023/12/21 05:36:59;;;;;;;4.65;2.25;;;9.50;99.90;;;;;;4984442;28;20046;-77
2023/12/21 05:39:25;;;;;;;4.63;1.33;;;9.50;99.90;;;;;;4981466;28;20055;-77
2023/12/21 05:41:51;;;;;;;5.15;1.10;;;9.50;99.90;;;;;;4976735;28;20045;-78
2023/12/21 05:44:16;;;;;;;3.20;1.60;;;9.50;99.90;;;;;;4984799;28;20042;-77
2023/12/21 05:46:42;;;;;;;7.28;0.90;;;9.50;99.90;;;;;;4984539;28;20090;-77
2023/12/21 05:49:08;;;;;;;2.38;1.23;;;9.60;99.90;;;;;;4983523;28;20827;-77
2023/12/21 05:51:34;;;;;;;3.05;1.27;;;9.60;99.90;;;;;;4960758;28;20054;-77
2023/12/21 05:54:00;;;;;;;4.50;2.92;;;9.60;99.90;;;;;;4978009;28;20057;-77
2023/12/21 05:56:25;;;;;;;4.28;1.05;;;9.60;99.90;;;;;;4965899;28;20042;-77
2023/12/21 05:58:51;;;;;;;7.78;2.33;;;9.60;99.90;;;;;;4984308;28;20489;-77
2023/12/21 06:01:17;;;;;;;2.60;1.35;;;9.60;99.90;;;;;;4974504;28;20690;-77
2023/12/21 06:03:42;;;;;;;5.47;1.63;;;9.60;99.90;;;;;;4983243;28;20046;-77
2023/12/21 06:06:08;;;;;;;10.05;2.03;;;9.60;99.90;;;;;;4970620;28;20178;-77
2023/12/21 06:08:34;;;;;;;8.70;1.30;;;9.60;99.90;;;;;;4962614;28;20133;-78
2023/12/21 06:11:00;;;;;;;5.97;2.15;;;9.60;99.90;;;;;;4961639;28;20533;-78
2023/12/21 06:13:28;;;;;;;3.20;2.17;;;9.50;99.90;;;;;;4961566;28;20078;-78
2023/12/21 06:15:53;;;;;;;4.78;1.58;;;9.50;99.90;;;;;;4943395;28;20051;-78
2023/12/21 06:18:19;;;;;;;2.25;0.88;;;9.50;99.90;;;;;;4953325;28;20051;-78
2023/12/21 06:20:45;;;;;;;5.35;2.15;;;9.50;99.90;;;;;;4943985;28;20174;-77
2023/12/21 06:23:10;;;;;;;2.22;1.00;;;9.40;99.90;;;;;;4951084;28;20047;-77
2023/12/21 06:25:36;;;;;;;3.10;1.25;;;9.50;99.90;;;;;;4962459;28;20035;-77
2023/12/21 06:28:01;;;;;;;5.35;1.02;;;9.40;99.90;;;;;;4962522;28;20189;-78
2023/12/21 06:30:27;;;;;;;8.05;1.10;;;9.40;99.90;;;;;;4963298;28;20046;-77
2023/12/21 06:32:53;;;;;;;5.90;1.27;;;9.40;99.90;;;;;;4949912;28;20050;-78
2023/12/21 06:35:19;;;;;;;7.32;2.08;;;9.40;99.90;;;;;;4960876;28;20038;-77
2023/12/21 06:37:45;;;;;;;3.58;1.73;;;9.30;99.90;;;;;;4958266;28;20050;-76
2023/12/21 06:40:11;;;;;;;4.57;1.02;;;9.30;99.90;;;;;;4957001;28;20094;-77
2023/12/21 06:42:36;;;;;;;6.25;1.63;;;9.30;99.90;;;;;;4963585;28;20049;-78
2023/12/21 06:45:03;;;;;;;1.98;1.48;;;9.30;99.90;;;;;;4958897;28;20043;-77
2023/12/21 06:47:28;;;;;;;5.30;1.20;;;9.30;99.90;;;;;;4955262;28;20142;-77
2023/12/21 06:49:54;;;;;;;6.85;2.55;;;9.30;99.90;;;;;;4953926;28;20458;-79
2023/12/21 06:52:21;;;;;;;4.60;1.40;;;9.30;99.90;;;;;;4962443;28;20081;-78
2023/12/21 06:54:47;;;;;;;5.05;1.42;;;9.30;99.90;;;;;;4960406;28;20501;-77
2023/12/21 06:57:12;;;;;;;3.65;1.55;;;9.20;99.90;;;;;;4951477;28;20046;-77
2023/12/21 06:59:38;;;;;;;3.22;1.17;;;9.30;99.90;;;;;;4958943;28;20162;-74
2023/12/21 07:02:03;;;;;;;5.43;2.42;;;9.20;99.90;;;;;;4955177;28;20057;-74
2023/12/21 07:04:29;;;;;;;4.53;2.00;;;9.20;99.90;;;;;;4955716;28;20132;-76
2023/12/21 07:06:56;;;;;;;3.50;1.65;;;9.20;99.90;;;;;;4961495;28;20058;-76
2023/12/21 07:09:21;;;;;;;6.53;2.08;;;9.20;99.90;;;;;;4961394;28;20054;-77
2023/12/21 07:11:47;;;;;;;3.97;1.85;;;9.20;99.90;;;;;;4966922;28;20039;-76
2023/12/21 07:14:12;;;;;;;5.82;2.80;;;9.20;99.90;;;;;;4960308;28;20185;-76
2023/12/21 07:16:38;;;;;;;10.57;1.50;;;9.20;99.90;;;;;;4970859;28;20408;-76
2023/12/21 07:19:06;;;;;;;8.82;2.08;;;9.20;99.90;;;;;;4962060;28;20047;-75
2023/12/21 07:21:31;;;;;;;5.35;1.70;;;9.20;99.90;;;;;;4953296;28;20051;-78
2023/12/21 07:23:57;;;;;;;9.18;1.42;;;9.20;99.90;;;;;;4960924;28;20053;-78
2023/12/21 07:26:23;;;;;;;4.57;1.92;;;9.20;99.90;;;;;;4958462;28;20055;-76
2023/12/21 07:28:50;;;;;;;7.13;1.40;;;9.20;99.90;;;;;;4958850;28;20049;-75
2023/12/21 07:31:17;;;;;;;9.98;4.32;;;9.20;99.90;;;;;;4956012;28;20426;-76
2023/12/21 07:33:43;;;;;;;6.65;1.80;;;9.20;99.90;;;;;;4958734;28;20046;-75
2023/12/21 07:36:08;;;;;;;7.53;2.20;;;9.20;99.90;;;;;;4953319;28;20043;-75
2023/12/21 07:38:36;;;;;;;7.43;2.72;;;9.20;99.90;;;;;;4954829;28;20046;-75
2023/12/21 07:41:01;;;;;;;6.88;2.60;;;9.20;99.90;;;;;;4953936;28;20055;-75
2023/12/21 07:43:29;;;;;;;8.05;1.70;;;9.20;99.90;;;;;;4953178;28;20402;-76
2023/12/21 07:45:55;;;;;;;8.98;1.55;;;9.30;99.90;;;;;;4967618;28;20085;-74
2023/12/21 07:48:20;;;;;;;5.63;2.05;;;9.30;99.90;;;;;;4962029;28;20545;-75
2023/12/21 07:50:46;;;;;;;5.18;1.65;;;9.30;99.90;;;;;;4960900;28;20528;-75
2023/12/21 07:53:11;;;;;;;3.75;1.88;;;9.30;99.90;;;;;;4976468;28;20125;-76
2023/12/21 07:55:37;;;;;;;4.68;1.90;;;9.40;99.90;;;;;;4971160;28;20137;-76
2023/12/21 07:58:03;;;;;;;6.78;2.00;;;9.40;99.90;;;;;;4959968;28;20244;-76
2023/12/21 08:00:28;;;;;;;10.15;2.97;;;9.40;99.90;;;;;;4959518;28;20450;-76
2023/12/21 08:02:54;;;;;;;5.95;2.35;;;9.40;99.90;;;;;;4942441;28;20069;-76
2023/12/21 08:05:22;;;;;;;7.90;2.72;;;9.50;99.90;;;;;;4972197;28;20536;-76
2023/12/21 08:07:52;;;;;;;4.50;1.50;;;9.50;99.90;;;;;;4958412;28;20043;-76
2023/12/21 08:10:17;;;;;;;3.47;2.38;;;9.50;99.90;;;;;;4957859;28;20041;-75
2023/12/21 08:12:44;;;;;;;7.40;2.58;;;9.60;99.90;;;;;;4960894;28;20433;-75
2023/12/21 08:15:12;;;;;;;5.53;1.48;;;9.60;99.90;;;;;;4960670;28;20069;-75
2023/12/21 08:17:40;;;;;;;11.30;2.13;;;9.60;99.90;;;;;;4959895;28;20138;-75
2023/12/21 08:20:06;;;;;;;5.78;1.70;;;9.70;99.90;;;;;;4960122;28;20047;-74
2023/12/21 08:22:32;;;;;;;10.18;2.97;;;9.70;99.90;;;;;;4959836;28;20043;-73
2023/12/21 08:24:58;;;;;;;6.50;2.42;;;9.70;99.90;;;;;;4953645;28;20049;-75
2023/12/21 08:27:24;;;;;;;6.07;2.25;;;9.70;99.90;;;;;;4950470;28;20267;-75
2023/12/21 08:29:51;;;;;;;11.10;2.85;;;9.70;99.90;;;;;;4960139;28;20177;-75
2023/12/21 08:32:18;;;;;;;6.00;2.30;;;9.70;99.90;;;;;;4980645;28;20367;-75
2023/12/21 08:34:44;;;;;;;6.38;2.75;;;9.80;99.90;;;;;;4978727;28;20077;-75
2023/12/21 08:37:10;;;;;;;4.60;1.73;;;9.80;99.90;;;;;;4957648;28;20740;-75
2023/12/21 08:39:35;;;;;;;9.13;2.85;;;9.80;99.90;;;;;;4963177;28;20493;-75
2023/12/21 08:42:02;;;;;;;10.15;1.90;;;9.80;99.90;;;;;;4958883;28;20046;-75
2023/12/21 08:44:28;;;;;;;11.77;3.20;;;9.80;99.90;;;;;;4942156;28;20140;-75
2023/12/21 08:46:54;;;;;;;8.32;1.58;;;9.80;99.90;;;;;;4958862;28;20098;-75
2023/12/21 08:49:19;;;;;;;4.30;1.60;;;9.80;99.90;;;;;;4959194;28;20059;-75
2023/12/21 08:51:45;;;;;;;8.95;2.70;;;9.80;99.90;;;;;;4964193;28;20057;-75
2023/12/21 08:54:10;;;;;;;6.70;2.05;;;9.70;99.90;;;;;;4962147;28;20144;-75
2023/12/21 08:56:44;;;;;;;7.75;2.22;;;9.80;99.90;;;;;;4962677;28;20042;-74
2023/12/21 08:59:10;;;;;;;4.03;1.92;;;9.80;99.90;;;;;;4978999;28;20571;-75
2023/12/21 09:01:35;;;;;;;4.68;1.55;;;9.80;99.90;;;;;;4980870;28;20058;-75
2023/12/21 09:04:02;;;;;;;7.40;1.83;;;9.80;99.90;;;;;;4963529;28;20353;-75
2023/12/21 09:06:28;;;;;;;4.05;0.98;;;9.90;99.90;;;;;;4960240;28;20145;-75
2023/12/21 09:08:53;;;;;;;10.30;2.33;;;9.90;99.90;;;;;;4962153;28;20047;-75
2023/12/21 09:11:19;;;;;;;4.45;1.58;;;9.90;99.90;;;;;;4946418;28;20622;-75
2023/12/21 09:13:45;;;;;;;3.58;1.83;;;9.90;99.90;;;;;;4963154;28;20047;-75
2023/12/21 09:16:10;;;;;;;7.53;2.05;;;9.90;99.90;;;;;;4946667;28;20054;-75
2023/12/21 09:18:36;;;;;;;3.90;2.60;;;10.00;99.90;;;;;;4962742;28;20047;-75
2023/12/21 09:21:03;;;;;;;5.40;2.05;;;10.00;99.90;;;;;;4963478;28;20260;-75
2023/12/21 09:23:29;;;;;;;4.57;1.95;;;10.10;99.90;;;;;;4961686;28;20077;-75
2023/12/21 09:25:55;;;;;;;6.03;2.05;;;10.10;99.90;;;;;;4960226;28;20055;-74
2023/12/21 09:28:21;;;;;;;6.88;2.38;;;10.10;99.90;;;;;;4969749;28;20057;-75
2023/12/21 09:30:46;;;;;;;6.20;2.28;;;10.10;99.90;;;;;;4964315;28;20049;-74
2023/12/21 09:33:12;;;;;;;5.97;1.80;;;10.20;99.90;;;;;;4965321;28;20054;-75
2023/12/21 09:35:38;;;;;;;6.07;1.83;;;10.20;99.90;;;;;;4968956;28;20051;-74
2023/12/21 09:38:03;;;;;;;17.85;2.05;;;10.30;99.90;;;;;;4946824;28;20389;-75
2023/12/21 09:40:29;;;;;;;9.10;2.75;;;10.20;99.90;;;;;;4962009;28;20050;-75
2023/12/21 09:42:58;;;;;;;9.30;1.50;;;10.20;99.90;;;;;;4975343;28;20046;-75
2023/12/21 09:45:25;;;;;;;7.88;1.42;;;10.20;99.90;;;;;;4975758;28;20513;-75
2023/12/21 09:47:52;;;;;;;6.68;1.50;;;10.30;99.90;;;;;;4946299;28;20051;-76
2023/12/21 09:50:19;;;;;;;5.88;1.30;;;10.30;99.90;;;;;;4951234;28;20343;-75
2023/12/21 09:52:47;;;;;;;8.68;1.95;;;10.30;99.90;;;;;;4963664;28;20057;-73
2023/12/21 09:55:15;;;;;;;11.95;2.50;;;10.30;99.90;;;;;;4962618;28;20413;-75
2023/12/21 09:57:41;;;;;;;8.50;3.08;;;10.30;99.90;;;;;;4957445;28;20086;-75
2023/12/21 10:00:08;;;;;;;8.90;1.88;;;10.40;99.90;;;;;;4952153;28;20259;-76
2023/12/21 10:02:34;;;;;;;6.20;2.20;;;10.40;99.90;;;;;;4955797;28;20470;-75
2023/12/21 10:05:03;;;;;;;10.48;2.25;;;10.40;99.90;;;;;;4956442;28;20054;-75
2023/12/21 10:07:29;;;;;;;7.32;1.70;;;10.40;99.90;;;;;;4956515;28;20054;-75
2023/12/21 10:09:54;;;;;;;3.55;0.82;;;10.50;99.90;;;;;;4960551;28;20112;-77
2023/12/21 10:12:20;;;;;;;11.23;1.70;;;10.50;99.90;;;;;;4960271;28;20047;-85
2023/12/21 10:14:57;;;;;;;5.50;2.50;;;10.50;99.90;;;;;;4977583;28;20105;-81
2023/12/21 10:17:23;;;;;;;8.38;1.55;;;10.50;99.90;;;;;;4960049;28;20559;-76
2023/12/21 10:19:49;;;;;;;6.00;1.27;;;10.50;99.90;;;;;;4947531;28;20549;-76
2023/12/21 10:22:15;;;;;;;7.10;2.42;;;10.60;99.90;;;;;;4962149;28;20046;-76
2023/12/21 10:24:42;;;;;;;6.88;1.80;;;10.60;99.90;;;;;;4962992;28;20109;-76
2023/12/21 10:27:13;;;;;;;7.40;1.33;;;10.60;99.90;;;;;;4955174;28;20043;-76
2023/12/21 10:29:40;;;;;;;5.13;1.80;;;10.70;99.90;;;;;;4952217;28;20050;-75
2023/12/21 10:32:06;;;;;;;11.50;2.63;;;10.60;99.90;;;;;;4959315;28;20051;-75
2023/12/21 10:34:31;;;;;;;7.13;1.90;;;10.70;99.90;;;;;;4943750;28;20047;-74
2023/12/21 10:37:00;;;;;;;5.90;2.15;;;10.60;99.90;;;;;;4949724;28;20055;-74
2023/12/21 10:39:27;;;;;;;5.68;1.90;;;10.60;99.90;;;;;;4949351;28;20236;-75
2023/12/21 10:41:56;;;;;;;6.13;1.73;;;10.60;99.90;;;;;;4951336;28;20494;-73
2023/12/21 10:44:21;;;;;;;17.60;2.45;;;10.60;99.90;;;;;;4961303;28;20256;-74
2023/12/21 10:46:47;;;;;;;5.53;3.20;;;10.60;99.90;;;;;;4961260;28;20049;-74
2023/12/21 10:49:14;;;;;;;7.65;1.73;;;10.60;99.90;;;;;;4960289;28;20031;-74
2023/12/21 10:51:43;;;;;;;6.50;1.80;;;10.60;99.90;;;;;;4962001;28;20437;-75
2023/12/21 10:54:11;;;;;;;3.88;1.70;;;10.60;99.90;;;;;;4958250;28;20043;-78
2023/12/21 10:56:40;;;;;;;8.88;3.03;;;10.60;99.90;;;;;;4961295;28;20042;-74
2023/12/21 10:59:08;;;;;;;5.35;1.77;;;10.60;99.90;;;;;;4966094;28;20120;-74
2023/12/21 11:01:34;;;;;;;9.45;2.00;;;10.70;99.90;;;;;;4961727;28;20038;-75
2023/12/21 11:04:00;;;;;;;3.70;1.95;;;10.70;99.90;;;;;;4960290;28;20066;-76
2023/12/21 11:06:27;;;;;;;9.45;1.50;;;10.70;99.90;;;;;;4944774;28;20101;-77
2023/12/21 11:08:53;;;;;;;8.10;2.58;;;10.70;99.90;;;;;;4957607;28;20402;-78
2023/12/21 11:11:22;;;;;;;4.65;2.17;;;10.70;99.90;;;;;;4952652;28;20054;-77
2023/12/21 11:13:57;;;;;;;6.70;1.65;;;10.70;99.90;;;;;;4960044;28;20312;-77
2023/12/21 11:16:28;;;;;;;6.90;2.38;;;10.70;99.90;;;;;;4978739;28;20050;-77
2023/12/21 11:18:56;;;;;;;6.45;1.65;;;10.80;99.90;;;;;;4978511;28;20046;-77
2023/12/21 11:21:24;;;;;;;7.47;1.98;;;10.80;99.90;;;;;;4977571;28;20061;-76
2023/12/21 11:23:50;;;;;;;8.65;2.78;;;10.80;99.90;;;;;;4967753;28;20054;-77
2023/12/21 11:26:21;;;;;;;5.20;1.38;;;10.80;99.90;;;;;;4965010;28;20046;-77
2023/12/21 11:28:47;;;;;;;5.70;1.52;;;10.80;99.90;;;;;;4962857;28;20436;-76
2023/12/21 11:31:14;;;;;;;6.40;2.00;;;10.80;99.90;;;;;;4960981;28;20402;-76
2023/12/21 11:33:40;;;;;;;6.38;1.80;;;10.80;99.90;;;;;;4960220;28;20055;-76
2023/12/21 11:36:06;;;;;;;5.63;1.73;;;10.80;99.90;;;;;;4960621;28;20561;-77
2023/12/21 11:38:51;;;;;;;9.75;3.38;;;10.80;99.90;;;;;;4960793;28;20051;-77
2023/12/21 11:41:20;;;;;;;9.73;2.75;;;10.80;99.90;;;;;;4959590;28;20054;-77
2023/12/21 11:44:04;;;;;;;7.20;1.88;;;10.90;99.90;;;;;;4960896;28;20153;-77
2023/12/21 11:46:36;;;;;;;7.25;1.77;;;10.90;99.90;;;;;;4959123;28;20043;-77
2023/12/21 11:49:02;;;;;;;14.90;3.33;;;10.90;99.90;;;;;;4959825;28;20437;-77
2023/12/21 11:51:28;;;;;;;6.57;1.73;;;10.90;99.90;;;;;;4960247;28;20328;-77
2023/12/21 11:53:54;;;;;;;6.78;1.95;;;10.90;99.90;;;;;;4957472;28;20178;-76
2023/12/21 11:56:19;;;;;;;6.45;2.50;;;10.90;99.90;;;;;;4960278;28;20497;-76
2023/12/21 11:58:47;;;;;;;5.75;2.67;;;10.90;99.90;;;;;;4973602;28;20079;-76
2023/12/21 12:01:25;;;;;;;4.57;1.92;;;10.90;99.90;;;;;;4958922;28;20043;-76
2023/12/21 12:03:51;;;;;;;7.05;2.00;;;11.00;99.90;;;;;;4954054;28;20394;-75
2023/12/21 12:06:19;;;;;;;5.10;2.33;;;11.00;99.90;;;;;;4959480;28;20059;-76
2023/12/21 12:08:45;;;;;;;10.48;2.58;;;11.00;99.90;;;;;;4957882;28;20113;-75
2023/12/21 12:11:11;;;;;;;7.25;2.17;;;11.00;99.90;;;;;;4958677;28;20497;-76
2023/12/21 12:13:37;;;;;;;6.32;2.60;;;10.90;99.90;;;;;;4956805;28;20046;-75
2023/12/21 12:16:03;;;;;;;7.35;3.53;;;10.90;99.90;;;;;;4942844;28;20050;-78
2023/12/21 12:18:29;;;;;;;2.60;1.83;;;10.90;99.90;;;;;;4959693;28;20045;-75
2023/12/21 12:21:00;;;;;;;12.70;2.42;;;10.90;99.90;;;;;;4959082;28;20476;-75
2023/12/21 12:23:26;;;;;;;5.00;2.35;;;10.90;99.90;;;;;;4954226;28;20452;-75
2023/12/21 12:25:52;;;;;;;4.78;2.28;;;10.90;99.90;;;;;;4958999;28;20561;-75
2023/12/21 12:28:18;;;;;;;9.98;2.20;;;10.80;99.90;;;;;;4952291;28;20047;-75
2023/12/21 12:30:44;;;;;;;4.63;2.63;;;10.80;99.90;;;;;;4960417;28;20047;-75
2023/12/21 12:33:09;;;;;;;5.47;2.33;;;10.90;99.90;;;;;;4955234;28;20481;-75
2023/12/21 12:35:39;;;;;;;10.82;2.03;;;10.80;99.90;;;;;;4946763;28;20054;-75
2023/12/21 12:38:05;;;;;;;5.93;2.67;;;10.80;99.90;;;;;;4947660;28;20069;-75
2023/12/21 12:40:30;;;;;;;3.45;2.08;;;10.70;99.90;;;;;;4944660;28;20656;-75
2023/12/21 12:42:56;;;;;;;6.45;3.08;;;10.70;99.90;;;;;;4947738;28;20042;-75
2023/12/21 12:45:23;;;;;;;5.07;2.30;;;10.70;99.90;;;;;;4961639;28;20701;-75
2023/12/21 12:47:49;;;;;;;7.43;2.03;;;10.70;99.90;;;;;;4946937;28;20077;-75